createdAt,value
2023-02-22T00:02:25.465Z,7.78
2023-02-22T00:04:54.054Z,7.78
2023-02-22T00:07:23.887Z,7.72
2023-02-22T00:09:52.013Z,7.76
2023-02-22T00:12:20.715Z,7.67
2023-02-22T00:14:48.895Z,7.69
2023-02-22T00:17:17.019Z,7.54
2023-02-22T00:19:45.118Z,7.51
2023-02-22T00:22:13.211Z,7.53
2023-02-22T00:24:42.798Z,7.50
2023-02-22T00:27:11.155Z,7.57
2023-02-22T00:29:39.263Z,7.53
2023-02-22T00:32:07.479Z,7.47
2023-02-22T00:34:35.586Z,7.16
2023-02-22T00:37:05.720Z,7.38
2023-02-22T00:39:34.050Z,7.36
2023-02-22T00:42:04.087Z,7.35
2023-02-22T00:44:33.177Z,7.30
2023-02-22T00:47:01.283Z,7.24
2023-02-22T00:49:29.421Z,7.19
2023-02-22T00:51:57.576Z,7.20
2023-02-22T00:54:25.748Z,7.06
2023-02-22T00:56:53.867Z,7.14
2023-02-22T00:59:23.402Z,7.05
2023-02-22T01:01:51.730Z,7.15
2023-02-22T01:04:20.040Z,6.95
2023-02-22T01:06:48.412Z,6.94
2023-02-22T01:09:16.536Z,7.08
2023-02-22T01:11:45.454Z,7.06
2023-02-22T01:14:13.562Z,6.87
2023-02-22T01:16:43.113Z,6.87
2023-02-22T01:19:12.736Z,6.74
2023-02-22T01:21:41.697Z,6.66
2023-02-22T01:24:10.246Z,6.70
2023-02-22T01:26:38.370Z,6.44
2023-02-22T01:29:08.080Z,6.49
2023-02-22T01:31:36.165Z,6.53
2023-02-22T01:34:05.730Z,6.52
2023-02-22T01:36:33.883Z,6.57
2023-02-22T01:39:01.959Z,6.34
2023-02-22T01:41:30.214Z,6.20
2023-02-22T01:43:58.302Z,6.19
2023-02-22T01:46:29.976Z,6.26
2023-02-22T01:49:02.082Z,5.38
2023-02-22T01:51:37.603Z,6.31
2023-02-22T01:54:11.343Z,6.34
2023-02-22T01:56:47.395Z,6.28
2023-02-22T01:59:16.254Z,6.06
2023-02-22T02:01:44.813Z,6.18
2023-02-22T02:04:17.746Z,6.34
2023-02-22T02:06:48.450Z,6.34
2023-02-22T02:09:22.812Z,6.35
2023-02-22T02:11:51.475Z,6.28
2023-02-22T02:14:19.690Z,6.24
2023-02-22T02:16:53.356Z,5.39
2023-02-22T02:19:33.280Z,6.23
2023-02-22T02:22:30.297Z,6.27
2023-02-22T02:25:35.631Z,6.24
2023-02-22T02:28:39.666Z,6.17
2023-02-22T02:31:28.909Z,5.97
2023-02-22T02:34:03.326Z,6.06
2023-02-22T02:36:37.784Z,6.06
2023-02-22T02:39:15.471Z,5.88
2023-02-22T02:41:48.383Z,5.94
2023-02-22T02:44:23.151Z,5.88
2023-02-22T02:46:57.738Z,5.91
2023-02-22T02:49:32.524Z,4.91
2023-02-22T02:52:02.104Z,5.54
2023-02-22T02:54:31.523Z,5.84
2023-02-22T02:56:59.842Z,5.81
2023-02-22T02:59:30.137Z,5.87
2023-02-22T03:02:24.718Z,5.85
2023-02-22T03:05:12.949Z,5.99
2023-02-22T03:07:50.990Z,6.04
2023-02-22T03:10:45.069Z,5.11
2023-02-22T03:13:20.995Z,5.40
2023-02-22T03:15:55.503Z,5.91
2023-02-22T03:18:30.322Z,5.91
2023-02-22T03:21:08.459Z,5.97
2023-02-22T03:23:45.036Z,5.93
2023-02-22T03:26:19.570Z,5.65
2023-02-22T03:28:50.336Z,5.08
2023-02-22T03:31:24.436Z,5.78
2023-02-22T03:33:56.860Z,5.55
2023-02-22T03:36:30.273Z,5.49
2023-02-22T03:39:01.676Z,5.57
2023-02-22T03:41:30.927Z,5.55
2023-02-22T03:44:04.652Z,5.53
2023-02-22T03:46:34.059Z,5.55
2023-02-22T03:49:07.760Z,5.53
2023-02-22T03:51:39.704Z,5.58
2023-02-22T03:54:09.474Z,5.49
2023-02-22T03:56:47.496Z,5.38
2023-02-22T03:59:16.184Z,5.42
2023-02-22T04:01:44.370Z,5.35
2023-02-22T04:04:12.666Z,5.30
2023-02-22T04:06:42.318Z,4.94
2023-02-22T04:09:10.481Z,5.43
2023-02-22T04:11:38.697Z,5.38
2023-02-22T04:14:06.983Z,5.32
2023-02-22T04:16:35.260Z,5.17
2023-02-22T04:19:03.418Z,5.36
2023-02-22T04:21:31.498Z,5.34
2023-02-22T04:24:01.171Z,5.35
2023-02-22T04:26:29.325Z,5.40
2023-02-22T04:28:57.431Z,5.52
2023-02-22T04:31:25.717Z,5.50
2023-02-22T04:33:53.844Z,5.37
2023-02-22T04:36:22.086Z,5.39
2023-02-22T04:38:50.287Z,5.37
2023-02-22T04:41:21.019Z,4.94
2023-02-22T04:43:49.110Z,5.28
2023-02-22T04:46:17.558Z,5.24
2023-02-22T04:48:45.947Z,5.28
2023-02-22T04:51:14.116Z,5.34
2023-02-22T04:53:42.357Z,4.57
2023-02-22T04:56:10.535Z,5.21
2023-02-22T04:58:40.076Z,4.94
2023-02-22T05:01:08.575Z,5.20
2023-02-22T05:03:39.015Z,5.25
2023-02-22T05:06:07.997Z,5.16
2023-02-22T05:08:36.415Z,5.04
2023-02-22T05:11:05.285Z,5.00
2023-02-22T05:13:33.556Z,4.51
2023-02-22T05:16:04.026Z,4.88
2023-02-22T05:18:32.305Z,4.69
2023-02-22T05:21:00.378Z,4.88
2023-02-22T05:23:28.523Z,4.92
2023-02-22T05:25:56.652Z,4.96
2023-02-22T05:28:24.845Z,4.88
2023-02-22T05:30:53.014Z,5.04
2023-02-22T05:33:22.553Z,4.79
2023-02-22T05:35:50.663Z,4.72
2023-02-22T05:38:18.840Z,4.94
2023-02-22T05:40:47.030Z,4.88
2023-02-22T05:43:15.828Z,4.90
2023-02-22T05:45:44.022Z,4.83
2023-02-22T05:48:13.045Z,4.90
2023-02-22T05:50:42.606Z,4.80
2023-02-22T05:53:10.819Z,5.03
2023-02-22T05:55:38.970Z,4.92
2023-02-22T05:58:07.153Z,4.30
2023-02-22T06:00:35.326Z,4.91
2023-02-22T06:03:05.853Z,4.91
2023-02-22T06:05:34.082Z,4.92
2023-02-22T06:08:04.489Z,5.02
2023-02-22T06:10:33.044Z,4.95
2023-02-22T06:13:02.411Z,4.96
2023-02-22T06:15:30.949Z,4.99
2023-02-22T06:18:00.270Z,4.91
2023-02-22T06:20:30.558Z,5.20
2023-02-22T06:22:59.835Z,5.21
2023-02-22T06:25:31.565Z,5.37
2023-02-22T06:28:00.121Z,5.11
2023-02-22T06:30:29.126Z,5.25
2023-02-22T06:32:57.704Z,5.56
2023-02-22T06:35:26.024Z,5.56
2023-02-22T06:37:54.147Z,5.49
2023-02-22T06:40:22.584Z,5.48
2023-02-22T06:42:53.779Z,5.25
2023-02-22T06:45:22.117Z,5.37
2023-02-22T06:47:50.908Z,4.34
2023-02-22T06:50:22.704Z,5.48
2023-02-22T06:52:51.177Z,5.53
2023-02-22T06:55:21.962Z,5.52
2023-02-22T06:57:51.820Z,5.55
2023-02-22T07:00:22.216Z,5.88
2023-02-22T07:02:50.626Z,6.05
2023-02-22T07:05:20.286Z,6.16
2023-02-22T07:07:49.096Z,6.26
2023-02-22T07:10:21.518Z,6.35
2023-02-22T07:12:49.977Z,6.49
2023-02-22T07:15:21.517Z,6.67
2023-02-22T07:17:49.388Z,6.91
2023-02-22T07:20:17.400Z,7.08
2023-02-22T07:22:45.273Z,7.21
2023-02-22T07:25:13.397Z,7.33
2023-02-22T07:27:42.559Z,7.51
2023-02-22T07:30:16.979Z,7.70
2023-02-22T07:32:46.945Z,7.84
2023-02-22T07:35:17.371Z,8.03
2023-02-22T07:37:45.553Z,7.87
2023-02-22T07:40:14.098Z,8.38
2023-02-22T07:42:56.484Z,8.43
2023-02-22T07:45:25.917Z,8.70
2023-02-22T07:47:55.876Z,8.87
2023-02-22T07:50:25.489Z,9.05
2023-02-22T07:52:56.130Z,8.40
2023-02-22T07:55:27.707Z,9.26
2023-02-22T07:57:58.312Z,8.89
2023-02-22T08:00:28.087Z,9.44
2023-02-22T08:02:58.129Z,9.49
2023-02-22T08:05:28.690Z,8.93
2023-02-22T08:07:57.161Z,9.60
2023-02-22T08:10:26.914Z,9.70
2023-02-22T08:12:56.260Z,9.77
2023-02-22T08:15:26.074Z,9.82
2023-02-22T08:17:54.662Z,9.95
2023-02-22T08:20:24.559Z,9.94
2023-02-22T08:22:53.522Z,9.85
2023-02-22T08:25:25.362Z,10.03
2023-02-22T08:27:58.788Z,10.12
2023-02-22T08:30:27.268Z,10.24
2023-02-22T08:32:55.611Z,10.40
2023-02-22T08:35:27.713Z,10.47
2023-02-22T08:37:58.730Z,10.51
2023-02-22T08:40:29.279Z,10.86
2023-02-22T08:42:57.560Z,10.91
2023-02-22T08:45:25.861Z,10.92
2023-02-22T08:47:53.999Z,10.89
2023-02-22T08:50:26.025Z,10.92
2023-02-22T08:52:55.835Z,10.97
2023-02-22T08:55:25.117Z,11.24
2023-02-22T08:57:53.398Z,11.33
2023-02-22T09:00:25.422Z,11.45
2023-02-22T09:02:53.813Z,11.40
2023-02-22T09:05:22.507Z,11.48
2023-02-22T09:07:52.098Z,11.90
2023-02-22T09:10:24.541Z,12.06
2023-02-22T09:12:53.195Z,12.26
2023-02-22T09:15:21.350Z,12.41
2023-02-22T09:17:50.155Z,12.50
2023-02-22T09:20:20.615Z,12.71
2023-02-22T09:22:50.112Z,12.76
2023-02-22T09:25:21.323Z,12.75
2023-02-22T09:27:50.603Z,12.94
2023-02-22T09:30:23.900Z,13.00
2023-02-22T09:32:54.079Z,13.04
2023-02-22T09:35:27.564Z,13.18
2023-02-22T09:37:57.143Z,13.33
2023-02-22T09:40:30.731Z,13.35
2023-02-22T09:43:11.184Z,13.49
2023-02-22T09:45:49.102Z,13.41
2023-02-22T09:48:22.316Z,13.47
2023-02-22T09:50:52.450Z,13.41
2023-02-22T09:53:29.903Z,13.66
2023-02-22T09:56:03.594Z,13.69
2023-02-22T09:58:35.046Z,13.73
2023-02-22T10:01:20.046Z,13.78
2023-02-22T10:03:55.678Z,13.83
2023-02-22T10:06:26.093Z,13.73
2023-02-22T10:08:58.767Z,13.68
2023-02-22T10:11:50.855Z,13.73
2023-02-22T10:14:49.599Z,13.76
2023-02-22T10:17:30.535Z,13.79
2023-02-22T10:20:18.248Z,13.88
2023-02-22T10:22:58.063Z,13.42
2023-02-22T10:25:29.865Z,14.04
2023-02-22T10:28:03.769Z,14.08
2023-02-22T10:30:36.872Z,14.09
2023-02-22T10:33:11.876Z,14.13
2023-02-22T10:35:42.128Z,14.12
2023-02-22T10:38:18.031Z,14.00
2023-02-22T10:40:51.561Z,13.98
2023-02-22T10:43:21.178Z,13.90
2023-02-22T10:45:50.345Z,13.90
2023-02-22T10:48:21.281Z,13.90
2023-02-22T10:50:50.657Z,12.97
2023-02-22T10:53:18.780Z,13.98
2023-02-22T10:56:17.071Z,13.81
2023-02-22T10:58:50.538Z,13.61
2023-02-22T11:01:34.970Z,13.77
2023-02-22T11:04:08.887Z,13.95
2023-02-22T11:06:37.760Z,14.08
2023-02-22T11:09:11.293Z,14.13
2023-02-22T11:11:41.321Z,13.59
2023-02-22T11:14:11.918Z,14.04
2023-02-22T11:16:43.626Z,14.01
2023-02-22T11:19:21.157Z,13.81
2023-02-22T11:21:53.101Z,13.94
2023-02-22T11:24:24.926Z,13.95
2023-02-22T11:26:56.594Z,14.08
2023-02-22T11:29:32.128Z,14.21
2023-02-22T11:32:04.263Z,14.32
2023-02-22T11:34:36.955Z,13.90
2023-02-22T11:37:29.455Z,14.56
2023-02-22T11:40:18.402Z,14.47
2023-02-22T11:42:47.014Z,14.47
2023-02-22T11:45:21.359Z,14.32
2023-02-22T11:47:53.806Z,14.68
2023-02-22T11:50:33.166Z,14.92
2023-02-22T11:53:25.413Z,15.17
2023-02-22T11:56:03.171Z,15.37
2023-02-22T11:58:43.342Z,15.53
2023-02-22T12:01:28.052Z,15.63
2023-02-22T12:04:29.874Z,15.41
2023-02-22T12:07:21.915Z,15.39
2023-02-22T12:09:56.215Z,15.55
2023-02-22T12:12:35.304Z,15.68
2023-02-22T12:15:09.887Z,15.46
2023-02-22T12:17:59.816Z,15.57
2023-02-22T12:20:37.268Z,15.66
2023-02-22T12:23:16.406Z,15.83
2023-02-22T12:25:58.572Z,16.04
2023-02-22T12:28:34.994Z,16.09
2023-02-22T12:31:15.583Z,15.94
2023-02-22T12:33:53.304Z,15.95
2023-02-22T12:36:32.496Z,15.66
2023-02-22T12:39:07.606Z,15.53
2023-02-22T12:41:41.640Z,15.24
2023-02-22T12:44:17.463Z,15.45
2023-02-22T12:46:48.979Z,15.35
2023-02-22T12:49:28.419Z,15.14
2023-02-22T12:52:12.425Z,15.25
2023-02-22T12:54:49.919Z,15.37
2023-02-22T12:57:25.930Z,15.89
2023-02-22T12:59:57.480Z,16.45
2023-02-22T13:02:32.224Z,16.86
2023-02-22T13:05:02.546Z,17.08
2023-02-22T13:07:47.048Z,17.10
2023-02-22T13:10:27.739Z,16.99
2023-02-22T13:13:04.025Z,17.00
2023-02-22T13:15:44.961Z,17.34
2023-02-22T13:18:20.325Z,17.10
2023-02-22T13:20:56.154Z,17.67
2023-02-22T13:23:39.095Z,18.09
2023-02-22T13:26:13.434Z,18.41
2023-02-22T13:28:47.091Z,18.41
2023-02-22T13:31:40.046Z,18.46
2023-02-22T13:34:50.661Z,18.44
2023-02-22T13:37:38.586Z,18.72
2023-02-22T13:40:38.407Z,18.71
2023-02-22T13:43:33.345Z,18.48
2023-02-22T13:46:34.095Z,19.08
2023-02-22T13:49:37.407Z,19.18
2023-02-22T13:52:09.604Z,19.20
2023-02-22T13:54:44.971Z,19.51
2023-02-22T13:57:24.784Z,19.93
2023-02-22T14:00:21.171Z,20.07
2023-02-22T14:03:02.482Z,20.40
2023-02-22T14:05:51.099Z,20.64
2023-02-22T14:08:44.405Z,20.89
2023-02-22T14:11:57.954Z,21.15
2023-02-22T14:14:27.662Z,21.52
2023-02-22T14:17:23.069Z,22.25
2023-02-22T14:20:21.050Z,22.95
2023-02-22T14:22:53.027Z,23.52
2023-02-22T14:25:33.897Z,24.17
2023-02-22T14:28:04.058Z,24.86
2023-02-22T14:30:38.127Z,25.30
2023-02-22T14:33:51.348Z,25.58
2023-02-22T14:36:22.389Z,24.33
2023-02-22T14:38:54.853Z,23.22
2023-02-22T14:41:27.592Z,22.64
2023-02-22T14:43:57.784Z,22.56
2023-02-22T14:46:33.013Z,22.97
2023-02-22T14:49:05.376Z,23.12
2023-02-22T14:51:41.959Z,22.70
2023-02-22T14:54:14.762Z,21.79
2023-02-22T14:56:49.321Z,20.76
2023-02-22T14:59:21.363Z,18.95
2023-02-22T15:02:05.989Z,18.82
2023-02-22T15:04:39.123Z,18.18
2023-02-22T15:07:21.150Z,17.54
2023-02-22T15:09:49.855Z,17.01
2023-02-22T15:12:25.734Z,16.00
2023-02-22T15:15:14.118Z,16.68
2023-02-22T15:17:46.594Z,16.40
2023-02-22T15:20:20.841Z,16.29
2023-02-22T15:22:50.908Z,15.27
2023-02-22T15:25:26.315Z,16.10
2023-02-22T15:27:54.565Z,15.93
2023-02-22T15:30:27.010Z,15.87
2023-02-22T15:33:04.508Z,15.71
2023-02-22T15:35:34.207Z,15.78
2023-02-22T15:38:06.212Z,15.56
2023-02-22T15:40:35.585Z,15.43
2023-02-22T15:43:08.973Z,15.31
2023-02-22T15:45:43.187Z,15.11
2023-02-22T15:48:14.660Z,15.01
2023-02-22T15:51:04.257Z,14.87
2023-02-22T15:53:40.176Z,14.16
2023-02-22T15:56:13.546Z,14.70
2023-02-22T15:58:42.378Z,13.95
2023-02-22T16:01:14.289Z,14.36
2023-02-22T16:03:47.236Z,13.97
2023-02-22T16:06:22.794Z,14.09
2023-02-22T16:08:55.537Z,13.88
2023-02-22T16:11:30.208Z,13.82
2023-02-22T16:14:02.602Z,13.68
2023-02-22T16:16:32.900Z,13.06
2023-02-22T16:19:33.374Z,13.14
2023-02-22T16:22:04.091Z,12.76
2023-02-22T16:24:34.448Z,13.21
2023-02-22T16:27:16.780Z,12.93
2023-02-22T16:29:45.298Z,12.80
2023-02-22T16:32:15.498Z,12.78
2023-02-22T16:34:45.152Z,12.60
2023-02-22T16:37:23.877Z,12.45
2023-02-22T16:39:52.578Z,12.38
2023-02-22T16:42:24.364Z,12.33
2023-02-22T16:44:53.355Z,12.16
2023-02-22T16:47:21.757Z,11.46
2023-02-22T16:49:53.142Z,12.01
2023-02-22T16:52:22.028Z,11.42
2023-02-22T16:54:50.335Z,11.91
2023-02-22T16:57:21.543Z,11.65
2023-02-22T16:59:52.282Z,11.79
2023-02-22T17:02:22.523Z,11.73
2023-02-22T17:04:52.065Z,11.64
2023-02-22T17:07:23.919Z,11.56
2023-02-22T17:09:52.301Z,11.47
2023-02-22T17:12:20.581Z,11.30
2023-02-22T17:14:48.758Z,11.41
2023-02-22T17:17:17.463Z,11.39
2023-02-22T17:19:45.821Z,11.30
2023-02-22T17:22:20.467Z,11.29
2023-02-22T17:24:49.353Z,11.11
2023-02-22T17:27:17.486Z,11.05
2023-02-22T17:29:45.731Z,11.23
2023-02-22T17:32:15.036Z,11.04
2023-02-22T17:34:43.246Z,10.80
2023-02-22T17:37:11.914Z,11.12
2023-02-22T17:39:41.435Z,11.07
2023-02-22T17:42:09.585Z,11.02
2023-02-22T17:44:38.017Z,11.00
2023-02-22T17:47:07.206Z,10.99
2023-02-22T17:49:35.335Z,10.85
2023-02-22T17:52:06.416Z,10.83
2023-02-22T17:54:34.808Z,10.87
2023-02-22T17:57:04.589Z,10.80
2023-02-22T17:59:32.925Z,10.73
2023-02-22T18:02:01.155Z,10.86
2023-02-22T18:04:29.420Z,10.72
2023-02-22T18:06:57.558Z,10.64
2023-02-22T18:09:25.828Z,10.60
2023-02-22T18:11:53.983Z,10.55
2023-02-22T18:14:23.815Z,10.49
2023-02-22T18:16:52.055Z,10.44
2023-02-22T18:19:23.083Z,10.29
2023-02-22T18:21:52.683Z,10.40
2023-02-22T18:24:20.921Z,10.35
2023-02-22T18:26:50.592Z,10.27
2023-02-22T18:29:18.862Z,10.30
2023-02-22T18:31:48.498Z,10.19
2023-02-22T18:34:17.736Z,10.15
2023-02-22T18:36:45.982Z,10.11
2023-02-22T18:39:14.165Z,10.09
2023-02-22T18:41:42.377Z,10.05
2023-02-22T18:44:11.216Z,9.69
2023-02-22T18:46:39.542Z,9.95
2023-02-22T18:49:12.017Z,9.57
2023-02-22T18:51:43.658Z,9.82
2023-02-22T18:54:13.459Z,9.59
2023-02-22T18:56:55.145Z,9.70
2023-02-22T18:59:23.330Z,9.85
2023-02-22T19:01:51.595Z,9.67
2023-02-22T19:04:22.027Z,9.80
2023-02-22T19:06:50.330Z,9.72
2023-02-22T19:09:18.621Z,9.65
2023-02-22T19:11:48.522Z,9.40
2023-02-22T19:14:18.033Z,9.53
2023-02-22T19:16:47.803Z,8.84
2023-02-22T19:19:21.080Z,9.38
2023-02-22T19:21:52.456Z,9.49
2023-02-22T19:24:21.526Z,9.46
2023-02-22T19:26:53.661Z,9.37
2023-02-22T19:29:24.435Z,9.41
2023-02-22T19:31:53.973Z,9.36
2023-02-22T19:34:25.021Z,8.33
2023-02-22T19:36:56.079Z,9.31
2023-02-22T19:39:26.239Z,9.29
2023-02-22T19:41:57.604Z,9.15
2023-02-22T19:44:27.470Z,9.11
2023-02-22T19:46:56.406Z,9.07
2023-02-22T19:51:58.357Z,8.89
2023-02-22T19:54:26.774Z,9.00
2023-02-22T19:56:58.503Z,8.81
2023-02-22T19:59:27.001Z,8.76
2023-02-22T20:01:56.414Z,8.73
2023-02-22T20:04:25.218Z,8.62
2023-02-22T20:06:57.683Z,8.69
2023-02-22T20:09:33.809Z,8.55
2023-02-22T20:12:02.129Z,8.69
2023-02-22T20:14:30.705Z,8.68
2023-02-22T20:17:00.587Z,8.62
2023-02-22T20:19:29.905Z,8.64
2023-02-22T20:22:00.714Z,8.36
2023-02-22T20:24:28.976Z,8.48
2023-02-22T20:26:58.664Z,8.56
2023-02-22T20:29:30.930Z,8.51
2023-02-22T20:32:02.860Z,8.44
2023-02-22T20:34:34.224Z,8.44
2023-02-22T20:37:05.725Z,8.43
2023-02-22T20:39:34.061Z,8.39
2023-02-22T20:42:04.869Z,8.30
2023-02-22T20:44:33.337Z,8.28
2023-02-22T20:47:04.023Z,7.53
2023-02-22T20:49:32.397Z,7.63
2023-02-22T20:52:00.963Z,8.20
2023-02-22T20:54:30.665Z,8.20
2023-02-22T20:56:59.280Z,8.09
2023-02-22T20:59:29.287Z,8.22
2023-02-22T21:01:57.597Z,8.04
2023-02-22T21:04:26.996Z,7.80
2023-02-22T21:06:55.690Z,7.66
2023-02-22T21:09:23.857Z,7.94
2023-02-22T21:11:53.391Z,7.81
2023-02-22T21:14:23.952Z,7.89
2023-02-22T21:16:53.520Z,7.71
2023-02-22T21:19:26.588Z,7.80
2023-02-22T21:22:01.505Z,7.80
2023-02-22T21:24:30.763Z,7.76
2023-02-22T21:27:00.486Z,7.80
2023-02-22T21:29:29.476Z,7.83
2023-02-22T21:31:58.210Z,7.60
2023-02-22T21:34:26.660Z,7.71
2023-02-22T21:36:54.986Z,7.24
2023-02-22T21:39:28.346Z,7.66
2023-02-22T21:42:02.112Z,7.36
2023-02-22T21:44:30.869Z,6.52
2023-02-22T21:46:59.080Z,7.40
2023-02-22T21:49:27.247Z,7.27
2023-02-22T21:51:56.565Z,7.33
2023-02-22T21:54:25.022Z,7.26
2023-02-22T21:56:54.592Z,7.38
2023-02-22T21:59:24.569Z,7.36
2023-02-22T22:01:56.231Z,7.28
2023-02-22T22:04:27.852Z,7.30
2023-02-22T22:06:58.084Z,6.76
2023-02-22T22:09:29.212Z,7.22
2023-02-22T22:11:59.718Z,7.01
2023-02-22T22:14:29.398Z,7.06
2023-02-22T22:16:59.601Z,7.04
2023-02-22T22:19:29.269Z,7.14
2023-02-22T22:21:57.749Z,7.21
2023-02-22T22:24:27.240Z,7.19
2023-02-22T22:26:55.569Z,6.84
2023-02-22T22:29:24.856Z,7.09
2023-02-22T22:31:54.613Z,7.22
2023-02-22T22:34:24.462Z,7.14
2023-02-22T22:36:52.810Z,6.95
2023-02-22T22:39:21.308Z,6.93
2023-02-22T22:41:49.906Z,6.97
2023-02-22T22:44:22.417Z,6.92
2023-02-22T22:46:53.823Z,6.90
2023-02-22T22:49:25.479Z,6.70
2023-02-22T22:51:54.615Z,6.76
2023-02-22T22:54:22.882Z,6.60
2023-02-22T22:56:50.997Z,6.79
2023-02-22T22:59:19.201Z,6.81
2023-02-22T23:01:47.443Z,6.87
2023-02-22T23:04:17.521Z,6.52
2023-02-22T23:06:50.009Z,6.63
2023-02-22T23:09:21.942Z,5.69
2023-02-22T23:11:53.493Z,6.60
2023-02-22T23:14:24.923Z,6.63
2023-02-22T23:16:56.651Z,6.62
2023-02-22T23:19:24.822Z,6.62
2023-02-22T23:21:56.047Z,6.62
2023-02-22T23:24:27.442Z,6.52
2023-02-22T23:27:00.296Z,6.70
2023-02-22T23:29:30.006Z,6.67
2023-02-22T23:31:58.986Z,6.24
2023-02-22T23:34:29.089Z,6.48
2023-02-22T23:36:58.734Z,6.39
2023-02-22T23:39:27.352Z,6.35
2023-02-22T23:41:56.906Z,6.26
2023-02-22T23:44:27.161Z,6.35
2023-02-22T23:46:56.091Z,6.19
2023-02-22T23:49:26.443Z,6.35
2023-02-22T23:51:55.055Z,5.91
2023-02-22T23:54:24.975Z,5.76
2023-02-22T23:56:56.994Z,6.26
2023-02-22T23:59:26.112Z,6.12
